createdAt,value
2018-04-18T00:01:57.090Z,7.30
2018-04-18T00:04:24.595Z,8.20
2018-04-18T00:06:52.036Z,7.50
2018-04-18T00:09:19.516Z,8.03
2018-04-18T00:11:46.969Z,7.40
2018-04-18T00:14:14.452Z,8.30
2018-04-18T00:16:41.905Z,7.10
2018-04-18T00:19:09.428Z,7.27
2018-04-18T00:21:36.873Z,6.40
2018-04-18T00:24:04.335Z,6.70
2018-04-18T00:26:31.820Z,7.40
2018-04-18T00:28:59.262Z,7.53
2018-04-18T00:31:26.815Z,8.30
2018-04-18T00:33:54.367Z,7.60
2018-04-18T00:36:21.853Z,8.63
2018-04-18T00:38:49.304Z,7.10
2018-04-18T00:41:16.790Z,7.93
2018-04-18T00:43:44.248Z,6.60
2018-04-18T00:46:11.760Z,6.53
2018-04-18T00:48:39.211Z,7.60
2018-04-18T00:51:06.692Z,8.53
2018-04-18T00:53:34.148Z,7.73
2018-04-18T00:56:01.639Z,8.17
2018-04-18T00:58:29.099Z,8.40
2018-04-18T01:00:56.579Z,7.77
2018-04-18T01:03:24.067Z,8.17
2018-04-18T01:05:51.548Z,7.50
2018-04-18T01:08:18.999Z,7.20
2018-04-18T01:10:46.527Z,7.83
2018-04-18T01:13:13.980Z,9.00
2018-04-18T01:15:41.461Z,8.10
2018-04-18T01:18:08.911Z,9.30
2018-04-18T01:20:36.392Z,7.60
2018-04-18T01:23:03.843Z,8.73
2018-04-18T01:25:31.327Z,7.27
2018-04-18T01:27:58.784Z,8.90
2018-04-18T01:30:26.596Z,7.50
2018-04-18T01:32:54.046Z,7.50
2018-04-18T01:35:21.500Z,8.43
2018-04-18T01:37:49.064Z,8.20
2018-04-18T01:40:16.623Z,8.43
2018-04-18T01:42:44.103Z,8.80
2018-04-18T01:45:11.548Z,9.03
2018-04-18T01:47:39.015Z,6.93
2018-04-18T01:50:06.464Z,7.83
2018-04-18T01:52:33.939Z,8.60
2018-04-18T01:55:01.389Z,8.90
2018-04-18T01:57:28.866Z,8.53
2018-04-18T01:59:56.315Z,8.53
2018-04-18T02:02:23.788Z,9.40
2018-04-18T02:04:51.244Z,11.47
2018-04-18T02:07:18.752Z,7.93
2018-04-18T02:09:46.201Z,9.40
2018-04-18T02:12:13.682Z,7.93
2018-04-18T02:14:41.159Z,7.90
2018-04-18T02:17:08.680Z,7.80
2018-04-18T02:19:36.123Z,7.70
2018-04-18T02:22:03.603Z,7.37
2018-04-18T02:24:31.164Z,8.77
2018-04-18T02:26:58.652Z,7.33
2018-04-18T02:29:26.116Z,7.60
2018-04-18T02:31:53.566Z,7.43
2018-04-18T02:34:21.062Z,8.33
2018-04-18T02:36:48.510Z,8.47
2018-04-18T02:39:16.002Z,8.73
2018-04-18T02:41:44.383Z,8.20
2018-04-18T02:44:11.864Z,7.23
2018-04-18T02:46:39.316Z,8.77
2018-04-18T02:49:06.804Z,9.23
2018-04-18T02:51:34.256Z,8.80
2018-04-18T02:54:01.742Z,8.50
2018-04-18T02:56:29.198Z,7.97
2018-04-18T02:58:56.685Z,8.60
2018-04-18T03:01:24.139Z,9.30
2018-04-18T03:03:51.633Z,8.40
2018-04-18T03:06:19.144Z,7.90
2018-04-18T03:08:46.596Z,9.27
2018-04-18T03:11:14.079Z,9.60
2018-04-18T03:13:41.530Z,7.97
2018-04-18T03:16:09.004Z,9.17
2018-04-18T03:18:36.461Z,9.30
2018-04-18T03:21:03.984Z,8.73
2018-04-18T03:23:31.437Z,9.30
2018-04-18T03:25:58.915Z,9.00
2018-04-18T03:28:26.364Z,10.47
2018-04-18T03:30:53.848Z,9.00
2018-04-18T03:33:21.300Z,9.53
2018-04-18T03:35:48.775Z,8.33
2018-04-18T03:38:16.237Z,10.17
2018-04-18T03:40:43.725Z,9.67
2018-04-18T03:43:11.175Z,8.40
2018-04-18T03:45:38.657Z,9.63
2018-04-18T03:48:06.119Z,9.73
2018-04-18T03:50:33.623Z,9.20
2018-04-18T03:53:01.132Z,11.87
2018-04-18T03:55:28.592Z,9.13
2018-04-18T03:57:56.084Z,9.33
2018-04-18T04:00:23.548Z,9.37
2018-04-18T04:02:51.039Z,14.50
2018-04-18T04:05:18.503Z,21.07
2018-04-18T04:07:45.991Z,14.87
2018-04-18T04:10:13.449Z,14.80
2018-04-18T04:12:40.937Z,14.20
2018-04-18T04:15:08.396Z,13.97
2018-04-18T04:17:47.623Z,11.40
2018-04-18T04:20:26.755Z,12.40
2018-04-18T04:23:06.156Z,13.37
2018-04-18T04:25:33.650Z,10.97
2018-04-18T04:28:01.989Z,12.00
2018-04-18T04:30:29.444Z,12.73
2018-04-18T04:32:56.946Z,13.43
2018-04-18T04:35:24.456Z,11.77
2018-04-18T04:37:51.940Z,12.33
2018-04-18T04:40:19.403Z,14.00
2018-04-18T04:42:46.932Z,12.30
2018-04-18T04:45:14.488Z,14.53
2018-04-18T04:47:41.984Z,13.80
2018-04-18T04:50:09.435Z,13.40
2018-04-18T04:52:36.919Z,13.80
2018-04-18T04:55:04.376Z,14.50
2018-04-18T04:57:32.891Z,13.43
2018-04-18T05:00:00.344Z,13.50
2018-04-18T05:02:27.910Z,13.03
2018-04-18T05:04:55.375Z,14.50
2018-04-18T05:07:22.871Z,12.90
2018-04-18T05:09:51.263Z,14.37
2018-04-18T05:12:18.721Z,14.23
2018-04-18T05:14:46.212Z,14.27
2018-04-18T05:17:13.668Z,14.50
2018-04-18T05:19:41.155Z,15.67
2018-04-18T05:22:08.620Z,14.63
2018-04-18T05:24:36.108Z,15.60
2018-04-18T05:27:03.603Z,15.90
2018-04-18T05:29:31.083Z,16.27
2018-04-18T05:31:58.537Z,16.13
2018-04-18T05:34:26.024Z,16.07
2018-04-18T05:36:53.532Z,14.00
2018-04-18T05:39:21.013Z,17.13
2018-04-18T05:41:48.468Z,16.80
2018-04-18T05:44:15.960Z,15.17
2018-04-18T05:46:43.429Z,15.10
2018-04-18T05:49:10.915Z,16.30
2018-04-18T05:51:38.369Z,15.17
2018-04-18T05:54:05.880Z,16.87
2018-04-18T05:56:33.363Z,17.40
2018-04-18T05:59:00.855Z,16.90
2018-04-18T06:01:28.311Z,15.60
2018-04-18T06:03:55.791Z,18.40
2018-04-18T06:06:23.251Z,19.40
2018-04-18T06:08:50.739Z,18.30
2018-04-18T06:11:18.199Z,17.00
2018-04-18T06:13:45.664Z,18.23
2018-04-18T06:16:13.151Z,18.00
2018-04-18T06:18:40.615Z,17.40
2018-04-18T06:21:08.100Z,16.97
2018-04-18T06:23:35.559Z,17.10
2018-04-18T06:26:03.060Z,17.93
2018-04-18T06:28:30.519Z,19.67
2018-04-18T06:30:58.008Z,19.83
2018-04-18T06:33:26.449Z,19.70
2018-04-18T06:35:53.944Z,19.20
2018-04-18T06:38:21.400Z,19.53
2018-04-18T06:40:48.884Z,19.07
2018-04-18T06:43:17.295Z,19.07
2018-04-18T06:45:44.780Z,28.30
2018-04-18T06:48:13.142Z,23.13
2018-04-18T06:50:40.637Z,20.60
2018-04-18T06:53:08.143Z,21.30
2018-04-18T06:55:35.595Z,20.43
2018-04-18T06:58:03.083Z,20.00
2018-04-18T07:00:30.531Z,20.60
2018-04-18T07:02:58.015Z,19.57
2018-04-18T07:05:25.495Z,18.70
2018-04-18T07:07:53.007Z,18.43
2018-04-18T07:10:20.465Z,18.73
2018-04-18T07:12:47.955Z,20.50
2018-04-18T07:15:15.415Z,21.23
2018-04-18T07:17:42.897Z,19.50
2018-04-18T07:20:11.247Z,18.60
2018-04-18T07:22:38.724Z,18.63
2018-04-18T07:25:06.199Z,19.70
2018-04-18T07:27:33.707Z,17.80
2018-04-18T07:30:01.178Z,19.10
2018-04-18T07:32:28.755Z,16.80
2018-04-18T07:34:59.562Z,18.90
2018-04-18T07:37:27.043Z,17.37
2018-04-18T07:39:54.495Z,16.27
2018-04-18T07:42:21.980Z,16.80
2018-04-18T07:44:49.516Z,15.80
2018-04-18T07:47:17.052Z,17.30
2018-04-18T07:49:44.503Z,14.10
2018-04-18T07:52:11.964Z,15.00
2018-04-18T07:54:39.447Z,16.23
2018-04-18T07:57:06.905Z,15.83
2018-04-18T07:59:34.403Z,15.20
2018-04-18T08:02:01.859Z,14.80
2018-04-18T08:04:29.343Z,14.17
2018-04-18T08:06:56.803Z,14.37
2018-04-18T08:09:25.250Z,13.63
2018-04-18T08:11:52.679Z,13.50
2018-04-18T08:14:20.162Z,13.10
2018-04-18T08:16:47.612Z,12.80
2018-04-18T08:19:15.091Z,14.70
2018-04-18T08:21:42.556Z,13.10
2018-04-18T08:24:10.035Z,13.80
2018-04-18T08:26:37.487Z,11.10
2018-04-18T08:29:04.983Z,10.37
2018-04-18T08:31:32.427Z,9.07
2018-04-18T08:34:00.189Z,9.80
2018-04-18T08:36:27.644Z,9.50
2018-04-18T08:38:55.129Z,11.00
2018-04-18T08:41:22.617Z,10.40
2018-04-18T08:43:50.072Z,8.83
2018-04-18T08:46:17.556Z,8.27
2018-04-18T08:48:45.015Z,10.90
2018-04-18T08:51:12.588Z,10.20
2018-04-18T08:53:40.048Z,9.37
2018-04-18T08:56:07.532Z,8.00
2018-04-18T08:58:35.060Z,10.10
2018-04-18T09:01:02.547Z,8.57
2018-04-18T09:03:30.075Z,8.17
2018-04-18T09:05:58.559Z,9.00
2018-04-18T09:08:26.999Z,8.57
2018-04-18T09:10:54.485Z,8.13
2018-04-18T09:13:21.939Z,9.70
2018-04-18T09:15:49.478Z,6.77
2018-04-18T09:18:16.968Z,7.90
2018-04-18T09:20:44.475Z,9.00
2018-04-18T09:23:11.928Z,8.63
2018-04-18T09:25:39.388Z,7.20
2018-04-18T09:28:06.863Z,6.37
2018-04-18T09:30:35.241Z,6.83
2018-04-18T09:33:02.729Z,7.00
2018-04-18T09:35:30.186Z,8.00
2018-04-18T09:37:57.671Z,5.17
2018-04-18T09:40:25.124Z,6.43
2018-04-18T09:42:52.608Z,5.27
2018-04-18T09:45:20.063Z,4.70
2018-04-18T09:47:47.572Z,4.33
2018-04-18T09:50:15.021Z,5.20
2018-04-18T09:52:43.540Z,6.43
2018-04-18T09:55:10.991Z,6.30
2018-04-18T09:57:38.436Z,6.30
2018-04-18T10:00:05.911Z,5.37
2018-04-18T10:02:37.325Z,8.20
2018-04-18T10:05:07.772Z,7.43
2018-04-18T10:07:35.228Z,6.03
2018-04-18T10:10:02.723Z,6.20
2018-04-18T10:12:30.166Z,5.10
2018-04-18T10:14:57.693Z,5.97
2018-04-18T10:17:25.142Z,5.17
2018-04-18T10:19:52.621Z,5.60
2018-04-18T10:22:20.091Z,5.63
2018-04-18T10:24:48.535Z,6.00
2018-04-18T10:27:15.979Z,5.90
2018-04-18T10:29:43.459Z,5.60
2018-04-18T10:32:10.908Z,5.87
2018-04-18T10:34:38.387Z,5.90
2018-04-18T10:37:05.836Z,5.50
2018-04-18T10:39:33.322Z,6.73
2018-04-18T10:42:00.771Z,5.80
2018-04-18T10:44:28.297Z,5.10
2018-04-18T10:46:55.743Z,5.20
2018-04-18T10:49:23.223Z,5.77
2018-04-18T10:51:50.679Z,6.70
2018-04-18T10:54:18.148Z,5.83
2018-04-18T10:56:45.596Z,5.93
2018-04-18T10:59:13.136Z,6.70
2018-04-18T11:01:40.600Z,6.50
2018-04-18T11:04:08.077Z,6.77
2018-04-18T11:06:36.506Z,5.77
2018-04-18T11:09:04.029Z,7.20
2018-04-18T11:11:31.479Z,7.17
2018-04-18T11:13:58.934Z,6.73
2018-04-18T11:16:26.428Z,8.10
2018-04-18T11:18:53.875Z,5.47
2018-04-18T11:21:21.359Z,5.13
2018-04-18T11:23:48.807Z,6.30
2018-04-18T11:26:16.287Z,6.20
2018-04-18T11:28:43.740Z,6.80
2018-04-18T11:31:11.219Z,6.93
2018-04-18T11:33:39.655Z,7.50
2018-04-18T11:36:07.139Z,8.00
2018-04-18T11:38:34.583Z,7.47
2018-04-18T11:41:02.088Z,7.40
2018-04-18T11:43:29.544Z,5.63
2018-04-18T11:45:57.024Z,5.70
2018-04-18T11:48:24.466Z,5.10
2018-04-18T11:50:51.979Z,5.70
2018-04-18T11:53:19.424Z,5.77
2018-04-18T11:55:46.903Z,5.70
2018-04-18T11:58:15.338Z,5.57
2018-04-18T12:00:42.787Z,6.07
2018-04-18T12:03:15.091Z,4.03
2018-04-18T12:05:42.535Z,4.90
2018-04-18T12:08:09.989Z,4.00
2018-04-18T12:10:37.448Z,4.83
2018-04-18T12:13:04.925Z,4.90
2018-04-18T12:15:32.351Z,5.40
2018-04-18T12:17:59.801Z,4.57
2018-04-18T12:20:27.226Z,4.50
2018-04-18T12:22:55.641Z,5.30
2018-04-18T12:25:23.083Z,4.47
2018-04-18T12:27:50.559Z,4.67
2018-04-18T12:30:18.047Z,4.60
2018-04-18T12:32:45.521Z,3.97
2018-04-18T12:35:13.060Z,4.53
2018-04-18T12:37:40.531Z,3.60
2018-04-18T12:40:07.987Z,2.97
2018-04-18T12:42:35.440Z,3.90
2018-04-18T12:45:02.936Z,4.03
2018-04-18T12:47:30.385Z,2.70
2018-04-18T12:49:57.875Z,3.13
2018-04-18T12:52:25.324Z,2.90
2018-04-18T12:54:52.804Z,3.10
2018-04-18T12:57:20.617Z,2.60
2018-04-18T12:59:48.131Z,2.53
2018-04-18T13:02:15.580Z,3.00
2018-04-18T13:04:43.113Z,2.00
2018-04-18T13:07:10.573Z,2.53
2018-04-18T13:09:38.048Z,3.60
2018-04-18T13:12:05.495Z,1.80
2018-04-18T13:14:32.987Z,2.83
2018-04-18T13:17:00.434Z,3.30
2018-04-18T13:19:27.889Z,4.20
2018-04-18T13:21:55.368Z,3.63
2018-04-18T13:24:22.816Z,3.90
2018-04-18T13:26:50.350Z,3.40
2018-04-18T13:29:17.799Z,2.97
2018-04-18T13:31:46.401Z,2.67
2018-04-18T13:34:14.855Z,2.63
2018-04-18T13:36:42.343Z,2.87
2018-04-18T13:39:09.797Z,3.67
2018-04-18T13:41:38.483Z,4.00
2018-04-18T13:44:05.922Z,4.00
2018-04-18T13:46:33.420Z,3.90
2018-04-18T13:49:00.867Z,4.07
2018-04-18T13:51:28.338Z,2.53
2018-04-18T13:53:55.784Z,3.10
2018-04-18T13:56:23.272Z,3.43
2018-04-18T13:58:51.648Z,3.30
2018-04-18T14:01:19.129Z,3.30
2018-04-18T14:03:46.587Z,2.73
2018-04-18T14:06:14.064Z,3.67
2018-04-18T14:08:41.512Z,3.80
2018-04-18T14:11:08.983Z,2.83
2018-04-18T14:13:37.404Z,3.20
2018-04-18T14:16:04.995Z,3.80
2018-04-18T14:18:32.549Z,2.90
2018-04-18T14:21:00.003Z,3.03
2018-04-18T14:23:27.500Z,3.77
2018-04-18T14:25:55.025Z,4.13
2018-04-18T14:28:22.504Z,3.50
2018-04-18T14:30:49.951Z,3.13
2018-04-18T14:33:17.428Z,3.70
2018-04-18T14:35:44.888Z,3.30
2018-04-18T14:38:12.424Z,2.73
2018-04-18T14:40:44.547Z,2.80
2018-04-18T14:43:12.023Z,3.03
2018-04-18T14:45:39.479Z,3.30
2018-04-18T14:48:06.957Z,2.90
2018-04-18T14:50:34.410Z,3.30
2018-04-18T14:53:01.883Z,2.67
2018-04-18T14:55:29.327Z,2.80
2018-04-18T14:57:56.799Z,2.97
2018-04-18T15:00:24.247Z,3.30
2018-04-18T15:02:51.743Z,2.70
2018-04-18T15:05:19.209Z,3.17
2018-04-18T15:07:46.695Z,3.10
2018-04-18T15:10:14.167Z,3.23
2018-04-18T15:12:41.623Z,3.27
2018-04-18T15:15:09.103Z,3.50
2018-04-18T15:17:38.076Z,3.92
2018-04-18T15:20:07.080Z,2.70
2018-04-18T15:22:34.531Z,3.13
2018-04-18T15:25:02.017Z,3.00
2018-04-18T15:27:33.224Z,2.80
2018-04-18T15:30:00.680Z,3.00
2018-04-18T15:32:28.109Z,3.43
2018-04-18T15:34:55.572Z,3.50
2018-04-18T15:37:23.005Z,3.10
2018-04-18T15:39:50.480Z,2.63
2018-04-18T15:42:17.936Z,2.97
2018-04-18T15:44:45.452Z,2.83
2018-04-18T15:47:12.904Z,2.77
2018-04-18T15:49:40.394Z,2.37
2018-04-18T15:52:07.848Z,1.97
2018-04-18T15:54:37.262Z,2.20
2018-04-18T15:57:04.715Z,2.70
2018-04-18T15:59:32.413Z,2.57
2018-04-18T16:01:59.894Z,2.37
2018-04-18T16:04:28.320Z,2.60
2018-04-18T16:06:55.815Z,2.77
2018-04-18T16:09:24.268Z,3.80
2018-04-18T16:11:51.767Z,2.53
2018-04-18T16:14:19.224Z,2.20
2018-04-18T16:16:46.703Z,2.30
2018-04-18T16:19:14.151Z,2.33
2018-04-18T16:21:41.643Z,2.40
2018-04-18T16:24:09.087Z,3.60
2018-04-18T16:26:36.571Z,2.67
2018-04-18T16:29:16.113Z,3.10
2018-04-18T16:31:43.600Z,3.93
2018-04-18T16:34:11.052Z,4.00
2018-04-18T16:36:38.525Z,4.60
2018-04-18T16:39:06.895Z,3.60
2018-04-18T16:41:35.381Z,3.40
2018-04-18T16:44:02.877Z,2.10
2018-04-18T16:46:30.333Z,2.13
2018-04-18T16:48:58.748Z,2.60
2018-04-18T16:51:26.192Z,3.43
2018-04-18T16:53:53.688Z,4.00
2018-04-18T16:56:22.115Z,4.87
2018-04-18T16:58:49.606Z,3.93
2018-04-18T17:01:17.057Z,4.60
2018-04-18T17:03:44.540Z,4.80
2018-04-18T17:06:11.995Z,4.07
2018-04-18T17:08:40.455Z,4.70
2018-04-18T17:11:07.908Z,4.33
2018-04-18T17:13:35.391Z,3.23
2018-04-18T17:16:02.852Z,4.53
2018-04-18T17:18:30.336Z,4.90
2018-04-18T17:20:57.783Z,3.60
2018-04-18T17:23:25.280Z,4.40
2018-04-18T17:25:52.741Z,3.50
2018-04-18T17:28:20.235Z,4.03
2018-04-18T17:30:47.687Z,4.40
2018-04-18T17:33:15.139Z,3.60
2018-04-18T17:35:42.623Z,4.00
2018-04-18T17:38:10.063Z,4.23
2018-04-18T17:40:37.544Z,4.10
2018-04-18T17:43:05.895Z,3.67
2018-04-18T17:45:33.377Z,4.00
2018-04-18T17:48:00.839Z,3.97
2018-04-18T17:50:30.289Z,3.67
2018-04-18T17:52:58.735Z,3.53
2018-04-18T17:55:26.221Z,3.90
2018-04-18T17:57:54.587Z,3.97
2018-04-18T18:00:22.073Z,3.67
2018-04-18T18:02:49.531Z,3.23
2018-04-18T18:05:17.012Z,4.33
2018-04-18T18:07:44.462Z,3.43
2018-04-18T18:10:11.961Z,4.27
2018-04-18T18:12:39.415Z,4.23
2018-04-18T18:15:06.896Z,4.10
2018-04-18T18:17:35.276Z,4.20
2018-04-18T18:20:02.855Z,3.67
2018-04-18T18:22:30.307Z,3.50
2018-04-18T18:24:57.784Z,4.60
2018-04-18T18:27:25.232Z,4.37
2018-04-18T18:29:52.715Z,4.00
2018-04-18T18:32:20.165Z,4.20
2018-04-18T18:34:47.652Z,5.00
2018-04-18T18:37:16.045Z,3.83
2018-04-18T18:39:43.547Z,4.13
2018-04-18T18:42:10.992Z,3.20
2018-04-18T18:44:38.450Z,15.33
2018-04-18T18:47:05.950Z,10.70
2018-04-18T18:49:33.408Z,6.13
2018-04-18T18:52:00.888Z,3.63
2018-04-18T18:54:28.348Z,4.17
2018-04-18T18:56:55.929Z,4.30
2018-04-18T18:59:23.389Z,4.53
2018-04-18T19:01:50.864Z,4.03
2018-04-18T19:04:19.218Z,4.40
2018-04-18T19:06:48.831Z,4.23
2018-04-18T19:09:16.282Z,4.53
2018-04-18T19:11:43.758Z,4.40
2018-04-18T19:14:12.171Z,4.83
2018-04-18T19:16:39.635Z,4.10
2018-04-18T19:21:49.884Z,4.47
2018-04-18T19:24:17.382Z,4.17
2018-04-18T19:26:44.872Z,4.70
2018-04-18T19:29:12.341Z,4.23
2018-04-18T19:31:40.014Z,4.07
2018-04-18T19:34:07.479Z,5.47
2018-04-18T19:36:34.972Z,4.10
2018-04-18T19:39:03.356Z,4.90
2018-04-18T19:41:30.832Z,5.33
2018-04-18T19:43:58.308Z,7.33
2018-04-18T19:46:25.771Z,7.80
2018-04-18T19:48:53.274Z,5.40
2018-04-18T19:51:20.732Z,5.67
2018-04-18T19:53:48.215Z,5.53
2018-04-18T19:56:17.452Z,6.00
2018-04-18T19:58:44.991Z,7.47
2018-04-18T20:01:12.452Z,5.80
2018-04-18T20:03:39.989Z,7.80
2018-04-18T20:06:07.530Z,6.47
2018-04-18T20:08:35.096Z,5.87
2018-04-18T20:11:03.528Z,6.63
2018-04-18T20:13:33.195Z,6.63
2018-04-18T20:16:02.217Z,7.10
2018-04-18T20:18:30.771Z,6.20
2018-04-18T20:20:59.201Z,8.97
2018-04-18T20:23:26.692Z,6.70
2018-04-18T20:25:54.135Z,8.80
2018-04-18T20:28:21.615Z,9.10
2018-04-18T20:30:49.183Z,7.10
2018-04-18T20:33:16.635Z,7.20
2018-04-18T20:35:44.210Z,8.60
2018-04-18T20:38:11.791Z,8.47
2018-04-18T20:40:39.299Z,7.70
2018-04-18T20:43:07.756Z,7.20
2018-04-18T20:45:35.248Z,8.03
2018-04-18T20:48:02.792Z,8.63
2018-04-18T20:50:31.610Z,8.80
2018-04-18T20:53:02.034Z,8.73
2018-04-18T20:55:29.619Z,11.73
2018-04-18T20:57:59.533Z,11.40
2018-04-18T21:00:27.096Z,10.30
2018-04-18T21:02:54.593Z,8.20
2018-04-18T21:05:22.175Z,9.60
2018-04-18T21:07:50.629Z,9.47
2018-04-18T21:10:18.202Z,10.10
2018-04-18T21:12:45.662Z,8.57
2018-04-18T21:15:14.192Z,8.97
2018-04-18T21:17:41.684Z,9.00
2018-04-18T21:20:09.165Z,9.67
2018-04-18T21:22:37.273Z,9.40
2018-04-18T21:25:04.805Z,10.03
2018-04-18T21:27:32.312Z,9.20
2018-04-18T21:29:59.779Z,10.50
2018-04-18T21:32:27.279Z,11.20
2018-04-18T21:34:54.776Z,9.83
2018-04-18T21:37:23.275Z,9.70
2018-04-18T21:39:50.776Z,10.87
2018-04-18T21:42:18.292Z,10.13
2018-04-18T21:44:46.129Z,9.87
2018-04-18T21:47:22.638Z,9.00
2018-04-18T21:49:50.092Z,9.30
2018-04-18T21:52:17.958Z,10.17
2018-04-18T21:54:45.467Z,10.10
2018-04-18T21:57:24.414Z,10.73
2018-04-18T21:59:51.910Z,9.00
2018-04-18T22:02:21.464Z,10.90
2018-04-18T22:04:48.980Z,9.07
2018-04-18T22:07:19.225Z,9.20
2018-04-18T22:09:46.797Z,9.20
2018-04-18T22:12:14.264Z,9.70
2018-04-18T22:14:41.848Z,8.40
2018-04-18T22:17:09.659Z,8.93
2018-04-18T22:19:37.128Z,8.80
2018-04-18T22:22:04.585Z,7.93
2018-04-18T22:24:33.079Z,8.97
2018-04-18T22:27:06.187Z,8.10
2018-04-18T22:29:33.687Z,9.10
2018-04-18T22:32:02.008Z,9.97
2018-04-18T22:34:29.510Z,9.23
2018-04-18T22:36:56.956Z,9.23
2018-04-18T22:39:24.455Z,8.87
2018-04-18T22:41:51.919Z,8.90
2018-04-18T22:44:20.087Z,9.43
2018-04-18T22:46:47.543Z,8.33
2018-04-18T22:49:15.051Z,8.83
2018-04-18T22:51:44.440Z,9.47
2018-04-18T22:54:12.003Z,8.03
2018-04-18T22:56:39.546Z,8.33
2018-04-18T22:59:07.014Z,9.97
2018-04-18T23:01:34.893Z,7.80
2018-04-18T23:04:02.409Z,9.03
2018-04-18T23:06:30.217Z,8.23
2018-04-18T23:08:57.692Z,8.40
2018-04-18T23:11:25.199Z,9.00
2018-04-18T23:13:52.700Z,9.43
2018-04-18T23:16:20.192Z,10.00
2018-04-18T23:18:48.499Z,10.63
2018-04-18T23:21:15.990Z,10.10
2018-04-18T23:23:43.451Z,10.17
2018-04-18T23:26:10.935Z,10.27
2018-04-18T23:28:38.395Z,9.87
2018-04-18T23:31:05.880Z,9.13
2018-04-18T23:33:33.341Z,9.80
2018-04-18T23:36:00.835Z,9.67
2018-04-18T23:38:29.220Z,9.20
2018-04-18T23:40:56.688Z,10.43
2018-04-18T23:43:24.434Z,10.13
2018-04-18T23:45:53.866Z,11.20
2018-04-18T23:48:21.366Z,10.33
2018-04-18T23:50:48.820Z,9.93
2018-04-18T23:53:16.304Z,9.50
2018-04-18T23:55:44.816Z,11.50
2018-04-18T23:58:12.322Z,10.00
